KHV121 VDPP-VHHH
Flight info
| Callsign | KHV121 |
|---|---|
| Flight time | 2h 3m |
| Altitude | 35000 |
| Route | NANXY2 GONLY/K0863F350 R588 PLK W11 BANSU Q1 DAN A1 IKELA/N0464F350 P901 IDOSI V561 CANTO |
| Aircraft | A321/M-SDE3FGHIRWY/LB1 |
Departure
| Time | 2026-05-04 02:40 |
|---|---|
| Airport | Phnom Penh International Airport (VDPP) |
Arrival
| Time | 2026-05-04 04:44 |
|---|---|
| Airport | Hong Kong International Airport (VHHH) |
| Time | Latitude | Longitude | Altitude | Speed | Heading |
|---|---|---|---|---|---|
| 2026-05-04 02:30 | 11.55396 | 104.84777 | 61 ft | 0 kts | 317° |
| 2026-05-04 02:32 | 11.55381 | 104.84791 | 53 ft | 2 kts | 318° |
| 2026-05-04 02:32 | 11.55366 | 104.84809 | 54 ft | 4 kts | 277° |
| 2026-05-04 02:33 | 11.55373 | 104.84831 | 55 ft | 4 kts | 229° |
| 2026-05-04 02:33 | 11.55381 | 104.84841 | 55 ft | 1 kts | 227° |
| 2026-05-04 02:33 | 11.55382 | 104.84841 | 55 ft | 0 kts | 227° |
| 2026-05-04 02:36 | 11.55381 | 104.84840 | 55 ft | 1 kts | 227° |
| 2026-05-04 02:36 | 11.55362 | 104.84820 | 54 ft | 5 kts | 227° |
| 2026-05-04 02:36 | 11.55326 | 104.84779 | 61 ft | 10 kts | 227° |
| 2026-05-04 02:36 | 11.55269 | 104.84741 | 62 ft | 10 kts | 184° |
| 2026-05-04 02:37 | 11.55207 | 104.84780 | 54 ft | 11 kts | 139° |
| 2026-05-04 02:37 | 11.55150 | 104.84837 | 60 ft | 11 kts | 135° |
| 2026-05-04 02:37 | 11.55134 | 104.84907 | 57 ft | 12 kts | 64° |
| 2026-05-04 02:37 | 11.55198 | 104.84980 | 61 ft | 15 kts | 46° |
| 2026-05-04 02:38 | 11.55279 | 104.85064 | 61 ft | 18 kts | 45° |
| 2026-05-04 02:38 | 11.55339 | 104.85127 | 53 ft | 20 kts | 45° |
| 2026-05-04 02:38 | 11.55445 | 104.85236 | 56 ft | 22 kts | 46° |
| 2026-05-04 02:38 | 11.55537 | 104.85343 | 56 ft | 15 kts | 63° |
| 2026-05-04 02:39 | 11.55569 | 104.85379 | 61 ft | 2 kts | 330° |
| 2026-05-04 02:39 | 11.55553 | 104.85349 | 54 ft | 5 kts | 224° |
| 2026-05-04 02:39 | 11.55535 | 104.85331 | 56 ft | 6 kts | 224° |
| 2026-05-04 02:39 | 11.55394 | 104.85186 | 59 ft | 63 kts | 226° |
| 2026-05-04 02:40 | 11.54928 | 104.84700 | 56 ft | 126 kts | 226° |
| 2026-05-04 02:40 | 11.54188 | 104.83927 | 85 ft | 174 kts | 224° |
| 2026-05-04 02:40 | 11.53354 | 104.83040 | 721 ft | 171 kts | 230° |
| 2026-05-04 02:40 | 11.52957 | 104.81892 | 1310 ft | 179 kts | 271° |
| 2026-05-04 02:41 | 11.53306 | 104.80690 | 1921 ft | 180 kts | 303° |
| 2026-05-04 02:41 | 11.54326 | 104.79889 | 2205 ft | 197 kts | 343° |
| 2026-05-04 02:41 | 11.55678 | 104.79512 | 2516 ft | 213 kts | 346° |
| 2026-05-04 02:41 | 11.57168 | 104.79081 | 2866 ft | 232 kts | 345° |
| 2026-05-04 02:42 | 11.58799 | 104.78594 | 3064 ft | 259 kts | 345° |
| 2026-05-04 02:42 | 11.60578 | 104.78052 | 3460 ft | 271 kts | 345° |
| 2026-05-04 02:42 | 11.62396 | 104.77495 | 4147 ft | 274 kts | 345° |
| 2026-05-04 02:42 | 11.64223 | 104.76932 | 4849 ft | 276 kts | 345° |
| 2026-05-04 02:43 | 11.66073 | 104.76362 | 5504 ft | 278 kts | 345° |
| 2026-05-04 02:43 | 11.67940 | 104.75789 | 6126 ft | 281 kts | 345° |
| 2026-05-04 02:43 | 11.69860 | 104.75453 | 6701 ft | 281 kts | 5° |
| 2026-05-04 02:43 | 11.71721 | 104.75989 | 7248 ft | 280 kts | 32° |
| 2026-05-04 02:44 | 11.73129 | 104.77328 | 7806 ft | 279 kts | 58° |
| 2026-05-04 02:44 | 11.73860 | 104.79164 | 8360 ft | 281 kts | 74° |
| 2026-05-04 02:44 | 11.74393 | 104.81093 | 8931 ft | 283 kts | 74° |
| 2026-05-04 02:44 | 11.74925 | 104.83041 | 9494 ft | 286 kts | 74° |
| 2026-05-04 02:45 | 11.75462 | 104.85007 | 10040 ft | 289 kts | 74° |
| 2026-05-04 02:45 | 11.76019 | 104.87028 | 10223 ft | 305 kts | 74° |
| 2026-05-04 02:45 | 11.76604 | 104.89141 | 10342 ft | 322 kts | 74° |
| 2026-05-04 02:45 | 11.77231 | 104.91396 | 10457 ft | 338 kts | 74° |
| 2026-05-04 02:46 | 11.77892 | 104.93759 | 10573 ft | 353 kts | 74° |
| 2026-05-04 02:46 | 11.78579 | 104.96209 | 10691 ft | 366 kts | 74° |
| 2026-05-04 02:46 | 11.79291 | 104.98747 | 10877 ft | 376 kts | 74° |
| 2026-05-04 02:46 | 11.80012 | 105.01328 | 11238 ft | 380 kts | 74° |
| 2026-05-04 02:47 | 11.80740 | 105.03931 | 11637 ft | 383 kts | 74° |
| 2026-05-04 02:47 | 11.81475 | 105.06553 | 12032 ft | 385 kts | 74° |
| 2026-05-04 02:47 | 11.82215 | 105.09196 | 12425 ft | 388 kts | 74° |
| 2026-05-04 02:47 | 11.82957 | 105.11849 | 12806 ft | 391 kts | 74° |
| 2026-05-04 02:48 | 11.83696 | 105.14499 | 13205 ft | 393 kts | 74° |
| 2026-05-04 02:48 | 11.84447 | 105.17189 | 13597 ft | 396 kts | 74° |
| 2026-05-04 02:48 | 11.85201 | 105.19900 | 13967 ft | 398 kts | 75° |
| 2026-05-04 02:48 | 11.86076 | 105.22586 | 14309 ft | 400 kts | 67° |
| 2026-05-04 02:49 | 11.87414 | 105.25086 | 14640 ft | 403 kts | 56° |
| 2026-05-04 02:49 | 11.89156 | 105.27342 | 14976 ft | 406 kts | 51° |
| 2026-05-04 02:49 | 11.90964 | 105.29559 | 15308 ft | 407 kts | 51° |
| 2026-05-04 02:49 | 11.92773 | 105.31793 | 15637 ft | 409 kts | 51° |
| 2026-05-04 02:50 | 11.94586 | 105.34042 | 15971 ft | 411 kts | 51° |
| 2026-05-04 02:50 | 11.96408 | 105.36309 | 16305 ft | 413 kts | 51° |
| 2026-05-04 02:50 | 11.98235 | 105.38584 | 16626 ft | 415 kts | 51° |
| 2026-05-04 02:50 | 12.00069 | 105.40869 | 16936 ft | 417 kts | 51° |
| 2026-05-04 02:51 | 12.01913 | 105.43168 | 17247 ft | 419 kts | 51° |
| 2026-05-04 02:51 | 12.03769 | 105.45475 | 17581 ft | 421 kts | 51° |
| 2026-05-04 02:51 | 12.05634 | 105.47792 | 17915 ft | 423 kts | 51° |
| 2026-05-04 02:51 | 12.07509 | 105.50121 | 18236 ft | 425 kts | 51° |
| 2026-05-04 02:52 | 12.09394 | 105.52459 | 18498 ft | 427 kts | 51° |
| 2026-05-04 02:52 | 12.11285 | 105.54802 | 18752 ft | 429 kts | 51° |
| 2026-05-04 02:52 | 12.13186 | 105.57158 | 19008 ft | 431 kts | 51° |
| 2026-05-04 02:52 | 12.15093 | 105.59527 | 19265 ft | 432 kts | 51° |
| 2026-05-04 02:53 | 12.17011 | 105.61913 | 19516 ft | 434 kts | 51° |
| 2026-05-04 02:53 | 12.18932 | 105.64303 | 19770 ft | 436 kts | 51° |
| 2026-05-04 02:53 | 12.20861 | 105.66704 | 20028 ft | 438 kts | 51° |
| 2026-05-04 02:53 | 12.22796 | 105.69113 | 20279 ft | 440 kts | 51° |
| 2026-05-04 02:54 | 12.24742 | 105.71539 | 20527 ft | 441 kts | 51° |
| 2026-05-04 02:54 | 12.26693 | 105.73973 | 20759 ft | 443 kts | 51° |
| 2026-05-04 02:54 | 12.28653 | 105.76414 | 20997 ft | 445 kts | 51° |
| 2026-05-04 02:54 | 12.30624 | 105.78866 | 21227 ft | 447 kts | 51° |
| 2026-05-04 02:55 | 12.34584 | 105.83800 | 21673 ft | 450 kts | 51° |
| 2026-05-04 02:55 | 12.36547 | 105.86249 | 21885 ft | 451 kts | 51° |
| 2026-05-04 02:55 | 12.38539 | 105.88736 | 22099 ft | 453 kts | 51° |
| 2026-05-04 02:56 | 12.40543 | 105.91238 | 22301 ft | 454 kts | 52° |
| 2026-05-04 02:56 | 12.42554 | 105.93745 | 22502 ft | 456 kts | 51° |
| 2026-05-04 02:56 | 12.44566 | 105.96253 | 22712 ft | 458 kts | 51° |
| 2026-05-04 02:56 | 12.46591 | 105.98775 | 22914 ft | 459 kts | 51° |
| 2026-05-04 02:57 | 12.48622 | 106.01308 | 23088 ft | 461 kts | 51° |
| 2026-05-04 02:57 | 12.50662 | 106.03857 | 23251 ft | 464 kts | 51° |
| 2026-05-04 02:57 | 12.52709 | 106.06414 | 23442 ft | 466 kts | 52° |
| 2026-05-04 02:57 | 12.54768 | 106.08986 | 23607 ft | 467 kts | 51° |
| 2026-05-04 02:58 | 12.56829 | 106.11567 | 23776 ft | 469 kts | 51° |
| 2026-05-04 02:58 | 12.58892 | 106.14157 | 23952 ft | 470 kts | 52° |
| 2026-05-04 02:58 | 12.60958 | 106.16752 | 24123 ft | 471 kts | 51° |
| 2026-05-04 02:58 | 12.63030 | 106.19351 | 24294 ft | 472 kts | 51° |
| 2026-05-04 02:59 | 12.65112 | 106.21960 | 24442 ft | 474 kts | 51° |
| 2026-05-04 02:59 | 12.67206 | 106.24579 | 24603 ft | 476 kts | 51° |
| 2026-05-04 02:59 | 12.69306 | 106.27202 | 24763 ft | 477 kts | 51° |
| 2026-05-04 02:59 | 12.71413 | 106.29834 | 24930 ft | 478 kts | 51° |
| 2026-05-04 03:00 | 12.73517 | 106.32466 | 25085 ft | 479 kts | 51° |
| 2026-05-04 03:00 | 12.75629 | 106.35114 | 25248 ft | 480 kts | 51° |
| 2026-05-04 03:00 | 12.77719 | 106.37738 | 25390 ft | 481 kts | 51° |
| 2026-05-04 03:00 | 12.79865 | 106.40434 | 25545 ft | 482 kts | 51° |
| 2026-05-04 03:01 | 12.81959 | 106.43063 | 25679 ft | 483 kts | 51° |
| 2026-05-04 03:01 | 12.84089 | 106.45731 | 25814 ft | 484 kts | 51° |
| 2026-05-04 03:01 | 12.86226 | 106.48411 | 25940 ft | 485 kts | 51° |
| 2026-05-04 03:01 | 12.88358 | 106.51086 | 26072 ft | 486 kts | 51° |
| 2026-05-04 03:02 | 12.90494 | 106.53773 | 26194 ft | 486 kts | 51° |
| 2026-05-04 03:02 | 12.92632 | 106.56463 | 26317 ft | 487 kts | 51° |
| 2026-05-04 03:02 | 12.94775 | 106.59157 | 26431 ft | 488 kts | 51° |
| 2026-05-04 03:02 | 12.96927 | 106.61858 | 26553 ft | 489 kts | 51° |
| 2026-05-04 03:03 | 12.99080 | 106.64560 | 26661 ft | 489 kts | 51° |
| 2026-05-04 03:03 | 13.01229 | 106.67261 | 26776 ft | 490 kts | 51° |
| 2026-05-04 03:03 | 13.03383 | 106.69977 | 26921 ft | 490 kts | 51° |
| 2026-05-04 03:03 | 13.05539 | 106.72691 | 27046 ft | 490 kts | 51° |
| 2026-05-04 03:04 | 13.07693 | 106.75403 | 27193 ft | 491 kts | 51° |
| 2026-05-04 03:04 | 13.09847 | 106.78118 | 27326 ft | 491 kts | 51° |
| 2026-05-04 03:04 | 13.11999 | 106.80833 | 27481 ft | 490 kts | 51° |
| 2026-05-04 03:04 | 13.14153 | 106.83549 | 27621 ft | 491 kts | 51° |
| 2026-05-04 03:05 | 13.16307 | 106.86262 | 27781 ft | 490 kts | 51° |
| 2026-05-04 03:05 | 13.18457 | 106.88972 | 27937 ft | 490 kts | 51° |
| 2026-05-04 03:05 | 13.20606 | 106.91683 | 28099 ft | 489 kts | 51° |
| 2026-05-04 03:05 | 13.22753 | 106.94395 | 28244 ft | 489 kts | 51° |
| 2026-05-04 03:06 | 13.24899 | 106.97103 | 28399 ft | 489 kts | 51° |
| 2026-05-04 03:06 | 13.27050 | 106.99817 | 28556 ft | 489 kts | 51° |
| 2026-05-04 03:06 | 13.29166 | 107.02491 | 28711 ft | 489 kts | 51° |
| 2026-05-04 03:06 | 13.31310 | 107.05202 | 28863 ft | 489 kts | 51° |
| 2026-05-04 03:07 | 13.33460 | 107.07918 | 28996 ft | 490 kts | 51° |
| 2026-05-04 03:07 | 13.35615 | 107.10636 | 29116 ft | 490 kts | 51° |
| 2026-05-04 03:07 | 13.37768 | 107.13355 | 29252 ft | 491 kts | 51° |
| 2026-05-04 03:07 | 13.39922 | 107.16079 | 29397 ft | 491 kts | 51° |
| 2026-05-04 03:08 | 13.42075 | 107.18802 | 29551 ft | 491 kts | 51° |
| 2026-05-04 03:08 | 13.44226 | 107.21524 | 29719 ft | 491 kts | 51° |
| 2026-05-04 03:08 | 13.46377 | 107.24251 | 29871 ft | 491 kts | 51° |
| 2026-05-04 03:08 | 13.48522 | 107.26972 | 30024 ft | 490 kts | 51° |
| 2026-05-04 03:09 | 13.50668 | 107.29697 | 30165 ft | 490 kts | 51° |
| 2026-05-04 03:09 | 13.52815 | 107.32421 | 30300 ft | 490 kts | 51° |
| 2026-05-04 03:09 | 13.54956 | 107.35138 | 30448 ft | 490 kts | 51° |
| 2026-05-04 03:09 | 13.57103 | 107.37859 | 30579 ft | 489 kts | 51° |
| 2026-05-04 03:10 | 13.59247 | 107.40572 | 30731 ft | 489 kts | 51° |
| 2026-05-04 03:10 | 13.61394 | 107.43288 | 30882 ft | 488 kts | 51° |
| 2026-05-04 03:10 | 13.63531 | 107.46001 | 31041 ft | 487 kts | 51° |
| 2026-05-04 03:10 | 13.65659 | 107.48706 | 31186 ft | 487 kts | 51° |
| 2026-05-04 03:11 | 13.67659 | 107.51509 | 31325 ft | 486 kts | 57° |
| 2026-05-04 03:11 | 13.69530 | 107.54407 | 31464 ft | 486 kts | 57° |
| 2026-05-04 03:11 | 13.71378 | 107.57262 | 31608 ft | 485 kts | 57° |
| 2026-05-04 03:11 | 13.73255 | 107.60154 | 31750 ft | 485 kts | 56° |
| 2026-05-04 03:12 | 13.75126 | 107.63033 | 31911 ft | 485 kts | 56° |
| 2026-05-04 03:12 | 13.76999 | 107.65920 | 32063 ft | 485 kts | 56° |
| 2026-05-04 03:12 | 13.78868 | 107.68806 | 32212 ft | 484 kts | 56° |
| 2026-05-04 03:12 | 13.80732 | 107.71691 | 32362 ft | 484 kts | 56° |
| 2026-05-04 03:13 | 13.82594 | 107.74569 | 32512 ft | 484 kts | 56° |
| 2026-05-04 03:13 | 13.84460 | 107.77450 | 32650 ft | 484 kts | 56° |
| 2026-05-04 03:13 | 13.86325 | 107.80332 | 32809 ft | 483 kts | 56° |
| 2026-05-04 03:13 | 13.88186 | 107.83210 | 32935 ft | 483 kts | 56° |
| 2026-05-04 03:14 | 13.90047 | 107.86092 | 33097 ft | 483 kts | 56° |
| 2026-05-04 03:14 | 13.91902 | 107.88968 | 33236 ft | 483 kts | 56° |
| 2026-05-04 03:14 | 13.93762 | 107.91852 | 33358 ft | 484 kts | 56° |
| 2026-05-04 03:14 | 13.95625 | 107.94738 | 33483 ft | 484 kts | 56° |
| 2026-05-04 03:15 | 13.97497 | 107.97623 | 33621 ft | 484 kts | 55° |
| 2026-05-04 03:15 | 13.99605 | 108.00319 | 33754 ft | 483 kts | 45° |
| 2026-05-04 03:15 | 14.02097 | 108.02621 | 33894 ft | 482 kts | 36° |
| 2026-05-04 03:15 | 14.04910 | 108.04486 | 34011 ft | 480 kts | 26° |
| 2026-05-04 03:16 | 14.07922 | 108.05975 | 34143 ft | 479 kts | 24° |
| 2026-05-04 03:16 | 14.10945 | 108.07428 | 34254 ft | 479 kts | 24° |
| 2026-05-04 03:16 | 14.13966 | 108.08883 | 34388 ft | 479 kts | 24° |
| 2026-05-04 03:16 | 14.16981 | 108.10336 | 34526 ft | 479 kts | 24° |
| 2026-05-04 03:17 | 14.19991 | 108.11791 | 34669 ft | 478 kts | 24° |
| 2026-05-04 03:17 | 14.22998 | 108.13249 | 34816 ft | 478 kts | 23° |
| 2026-05-04 03:17 | 14.26028 | 108.14661 | 34959 ft | 476 kts | 18° |
| 2026-05-04 03:18 | 14.32466 | 108.16077 | 35023 ft | 473 kts | 359° |
| 2026-05-04 03:18 | 14.39048 | 108.16186 | 35022 ft | 474 kts | 358° |
| 2026-05-04 03:19 | 14.45642 | 108.16323 | 35023 ft | 474 kts | 359° |
| 2026-05-04 03:19 | 14.52247 | 108.16479 | 35024 ft | 474 kts | 359° |
| 2026-05-04 03:20 | 14.58812 | 108.16637 | 35025 ft | 475 kts | 359° |
| 2026-05-04 03:20 | 14.65423 | 108.16783 | 35036 ft | 475 kts | 359° |
| 2026-05-04 03:21 | 14.72036 | 108.16926 | 35042 ft | 476 kts | 359° |
| 2026-05-04 03:21 | 14.78678 | 108.17074 | 35050 ft | 476 kts | 359° |
| 2026-05-04 03:22 | 14.85266 | 108.17218 | 35053 ft | 476 kts | 359° |
| 2026-05-04 03:22 | 14.91888 | 108.17365 | 35058 ft | 476 kts | 359° |
| 2026-05-04 03:23 | 14.98519 | 108.17517 | 35054 ft | 477 kts | 359° |
| 2026-05-04 03:23 | 15.04036 | 108.17639 | 35046 ft | 477 kts | 359° |
| 2026-05-04 03:24 | 15.11796 | 108.17804 | 35042 ft | 477 kts | 359° |
| 2026-05-04 03:24 | 15.17317 | 108.17923 | 35035 ft | 477 kts | 359° |
| 2026-05-04 03:25 | 15.23957 | 108.18070 | 35041 ft | 478 kts | 358° |
| 2026-05-04 03:25 | 15.30620 | 108.18212 | 35031 ft | 478 kts | 358° |
| 2026-05-04 03:26 | 15.37275 | 108.18355 | 35032 ft | 478 kts | 358° |
| 2026-05-04 03:26 | 15.43935 | 108.18499 | 35026 ft | 478 kts | 358° |
| 2026-05-04 03:27 | 15.50592 | 108.18634 | 35026 ft | 479 kts | 358° |
| 2026-05-04 03:27 | 15.57215 | 108.18772 | 35029 ft | 479 kts | 358° |
| 2026-05-04 03:28 | 15.63874 | 108.18920 | 35030 ft | 478 kts | 358° |
| 2026-05-04 03:28 | 15.70522 | 108.19073 | 35032 ft | 478 kts | 358° |
| 2026-05-04 03:29 | 15.77170 | 108.19217 | 35040 ft | 477 kts | 358° |
| 2026-05-04 03:29 | 15.83808 | 108.19356 | 35044 ft | 477 kts | 358° |
| 2026-05-04 03:30 | 15.90447 | 108.19493 | 35050 ft | 477 kts | 358° |
| 2026-05-04 03:30 | 15.97078 | 108.19656 | 35061 ft | 477 kts | 1° |
| 2026-05-04 03:30 | 16.00359 | 108.20194 | 35060 ft | 480 kts | 13° |
| 2026-05-04 03:31 | 16.03499 | 108.21396 | 35061 ft | 483 kts | 24° |
| 2026-05-04 03:31 | 16.06367 | 108.23227 | 35059 ft | 486 kts | 36° |
| 2026-05-04 03:31 | 16.08851 | 108.25619 | 35057 ft | 489 kts | 48° |
| 2026-05-04 03:32 | 16.12782 | 108.31401 | 35053 ft | 490 kts | 54° |
| 2026-05-04 03:32 | 16.16569 | 108.37258 | 35049 ft | 491 kts | 54° |
| 2026-05-04 03:33 | 16.20380 | 108.43148 | 35044 ft | 491 kts | 54° |
| 2026-05-04 03:33 | 16.24190 | 108.49053 | 35048 ft | 491 kts | 54° |
| 2026-05-04 03:34 | 16.27990 | 108.54941 | 35048 ft | 489 kts | 54° |
| 2026-05-04 03:34 | 16.31778 | 108.60817 | 35043 ft | 488 kts | 54° |
| 2026-05-04 03:35 | 16.35551 | 108.66691 | 35044 ft | 487 kts | 54° |
| 2026-05-04 03:35 | 16.39379 | 108.72508 | 35039 ft | 487 kts | 53° |
| 2026-05-04 03:36 | 16.43281 | 108.78275 | 35041 ft | 486 kts | 53° |
| 2026-05-04 03:36 | 16.47161 | 108.84047 | 35038 ft | 487 kts | 53° |
| 2026-05-04 03:37 | 16.51028 | 108.89855 | 35030 ft | 487 kts | 53° |
| 2026-05-04 03:37 | 16.54889 | 108.95667 | 35015 ft | 488 kts | 53° |
| 2026-05-04 03:38 | 16.58754 | 109.01514 | 35005 ft | 490 kts | 54° |
| 2026-05-04 03:38 | 16.62576 | 109.07423 | 35005 ft | 492 kts | 54° |
| 2026-05-04 03:39 | 16.66371 | 109.13316 | 35020 ft | 493 kts | 54° |
| 2026-05-04 03:39 | 16.70218 | 109.19247 | 35018 ft | 494 kts | 54° |
| 2026-05-04 03:40 | 16.74079 | 109.25186 | 35020 ft | 495 kts | 54° |
| 2026-05-04 03:40 | 16.77947 | 109.31144 | 35024 ft | 495 kts | 54° |
| 2026-05-04 03:41 | 16.81802 | 109.37111 | 35034 ft | 496 kts | 54° |
| 2026-05-04 03:41 | 16.85657 | 109.43079 | 35025 ft | 496 kts | 54° |
| 2026-05-04 03:42 | 16.89526 | 109.49057 | 35030 ft | 496 kts | 54° |
| 2026-05-04 03:42 | 16.93394 | 109.55038 | 35023 ft | 497 kts | 54° |
| 2026-05-04 03:43 | 16.97268 | 109.61033 | 35020 ft | 498 kts | 54° |
| 2026-05-04 03:43 | 17.01148 | 109.67032 | 35028 ft | 498 kts | 54° |
| 2026-05-04 03:44 | 17.04997 | 109.73005 | 35028 ft | 499 kts | 54° |
| 2026-05-04 03:44 | 17.08871 | 109.79019 | 35036 ft | 499 kts | 54° |
| 2026-05-04 03:45 | 17.12748 | 109.85035 | 35036 ft | 498 kts | 54° |
| 2026-05-04 03:45 | 17.16621 | 109.91056 | 35031 ft | 498 kts | 54° |
| 2026-05-04 03:46 | 17.20484 | 109.97064 | 35032 ft | 498 kts | 54° |
| 2026-05-04 03:46 | 17.24347 | 110.03091 | 35033 ft | 498 kts | 54° |
| 2026-05-04 03:47 | 17.28202 | 110.09108 | 35031 ft | 498 kts | 54° |
| 2026-05-04 03:47 | 17.32062 | 110.15128 | 35027 ft | 498 kts | 54° |
| 2026-05-04 03:48 | 17.35901 | 110.21119 | 35029 ft | 498 kts | 54° |
| 2026-05-04 03:48 | 17.39764 | 110.27147 | 35033 ft | 498 kts | 54° |
| 2026-05-04 03:49 | 17.43632 | 110.33167 | 35032 ft | 499 kts | 54° |
| 2026-05-04 03:49 | 17.47536 | 110.39177 | 35026 ft | 499 kts | 53° |
| 2026-05-04 03:50 | 17.51444 | 110.45178 | 35029 ft | 498 kts | 53° |
| 2026-05-04 03:50 | 17.55346 | 110.51193 | 35024 ft | 499 kts | 53° |
| 2026-05-04 03:51 | 17.59247 | 110.57218 | 35028 ft | 499 kts | 54° |
| 2026-05-04 03:51 | 17.63152 | 110.63245 | 35028 ft | 500 kts | 54° |
| 2026-05-04 03:52 | 17.67056 | 110.69279 | 35029 ft | 500 kts | 53° |
| 2026-05-04 03:52 | 17.70962 | 110.75322 | 35035 ft | 500 kts | 54° |
| 2026-05-04 03:53 | 17.74858 | 110.81370 | 35030 ft | 500 kts | 54° |
| 2026-05-04 03:53 | 17.78758 | 110.87420 | 35032 ft | 500 kts | 54° |
| 2026-05-04 03:54 | 17.82658 | 110.93466 | 35031 ft | 500 kts | 54° |
| 2026-05-04 03:54 | 17.86531 | 110.99483 | 35033 ft | 500 kts | 54° |
| 2026-05-04 03:55 | 17.90420 | 111.05547 | 35027 ft | 500 kts | 54° |
| 2026-05-04 03:55 | 17.94314 | 111.11605 | 35039 ft | 501 kts | 54° |
| 2026-05-04 03:56 | 17.98214 | 111.17672 | 35032 ft | 501 kts | 54° |
| 2026-05-04 03:56 | 18.02107 | 111.23735 | 35037 ft | 500 kts | 54° |
| 2026-05-04 03:57 | 18.05984 | 111.29802 | 35037 ft | 500 kts | 54° |
| 2026-05-04 03:57 | 18.09860 | 111.35867 | 35037 ft | 499 kts | 54° |
| 2026-05-04 03:58 | 18.15687 | 111.44952 | 35033 ft | 499 kts | 54° |
| 2026-05-04 03:58 | 18.19562 | 111.51015 | 35034 ft | 499 kts | 54° |
| 2026-05-04 03:59 | 18.23429 | 111.57089 | 35039 ft | 500 kts | 54° |
| 2026-05-04 03:59 | 18.27310 | 111.63183 | 35033 ft | 501 kts | 54° |
| 2026-05-04 04:00 | 18.31188 | 111.69274 | 35031 ft | 501 kts | 54° |
| 2026-05-04 04:00 | 18.35061 | 111.75371 | 35033 ft | 501 kts | 54° |
| 2026-05-04 04:01 | 18.38934 | 111.81480 | 35039 ft | 501 kts | 55° |
| 2026-05-04 04:01 | 18.42808 | 111.87568 | 35045 ft | 500 kts | 54° |
| 2026-05-04 04:02 | 18.46671 | 111.93647 | 35054 ft | 499 kts | 55° |
| 2026-05-04 04:02 | 18.50488 | 111.99692 | 35042 ft | 500 kts | 55° |
| 2026-05-04 04:03 | 18.54351 | 112.05795 | 35036 ft | 501 kts | 55° |
| 2026-05-04 04:03 | 18.58220 | 112.11905 | 35035 ft | 501 kts | 55° |
| 2026-05-04 04:04 | 18.62088 | 112.18022 | 35040 ft | 501 kts | 55° |
| 2026-05-04 04:04 | 18.66188 | 112.23930 | 35037 ft | 498 kts | 44° |
| 2026-05-04 04:05 | 18.71517 | 112.28517 | 35041 ft | 494 kts | 33° |
| 2026-05-04 04:05 | 18.77114 | 112.32716 | 35035 ft | 495 kts | 33° |
| 2026-05-04 04:06 | 18.82718 | 112.36947 | 35020 ft | 496 kts | 33° |
| 2026-05-04 04:06 | 18.87398 | 112.40477 | 35020 ft | 497 kts | 33° |
| 2026-05-04 04:07 | 18.93029 | 112.44721 | 35025 ft | 498 kts | 33° |
| 2026-05-04 04:07 | 18.98795 | 112.48736 | 35024 ft | 494 kts | 23° |
| 2026-05-04 04:08 | 19.05252 | 112.50954 | 35041 ft | 485 kts | 6° |
| 2026-05-04 04:08 | 19.11919 | 112.52159 | 35039 ft | 486 kts | 6° |
| 2026-05-04 04:09 | 19.18585 | 112.53372 | 35041 ft | 486 kts | 6° |
| 2026-05-04 04:09 | 19.25252 | 112.54585 | 35041 ft | 486 kts | 6° |
| 2026-05-04 04:10 | 19.31924 | 112.55799 | 35044 ft | 486 kts | 6° |
| 2026-05-04 04:10 | 19.38551 | 112.57003 | 35051 ft | 486 kts | 6° |
| 2026-05-04 04:11 | 19.45218 | 112.58221 | 35050 ft | 486 kts | 6° |
| 2026-05-04 04:11 | 19.51889 | 112.59450 | 35048 ft | 486 kts | 6° |
| 2026-05-04 04:12 | 19.58550 | 112.60667 | 35047 ft | 486 kts | 6° |
| 2026-05-04 04:12 | 19.65209 | 112.61884 | 35062 ft | 486 kts | 5° |
| 2026-05-04 04:13 | 19.71872 | 112.63100 | 35052 ft | 486 kts | 5° |
| 2026-05-04 04:13 | 19.78539 | 112.64320 | 35054 ft | 486 kts | 5° |
| 2026-05-04 04:14 | 19.85198 | 112.65543 | 35051 ft | 486 kts | 5° |
| 2026-05-04 04:14 | 19.91856 | 112.66771 | 35052 ft | 486 kts | 5° |
| 2026-05-04 04:15 | 19.98526 | 112.67997 | 35064 ft | 486 kts | 5° |
| 2026-05-04 04:15 | 20.05178 | 112.69219 | 35060 ft | 485 kts | 5° |
| 2026-05-04 04:16 | 20.11834 | 112.70441 | 35060 ft | 484 kts | 5° |
| 2026-05-04 04:16 | 20.18478 | 112.71663 | 35058 ft | 484 kts | 5° |
| 2026-05-04 04:17 | 20.25120 | 112.72891 | 35059 ft | 484 kts | 5° |
| 2026-05-04 04:17 | 20.31768 | 112.74121 | 35064 ft | 485 kts | 5° |
| 2026-05-04 04:18 | 20.38376 | 112.75327 | 35063 ft | 485 kts | 4° |
| 2026-05-04 04:18 | 20.45032 | 112.76550 | 35061 ft | 485 kts | 5° |
| 2026-05-04 04:19 | 20.51684 | 112.77774 | 35060 ft | 485 kts | 5° |
| 2026-05-04 04:19 | 20.58337 | 112.79007 | 35057 ft | 486 kts | 5° |
| 2026-05-04 04:20 | 20.65004 | 112.80245 | 35066 ft | 486 kts | 5° |
| 2026-05-04 04:20 | 20.71671 | 112.81480 | 35066 ft | 486 kts | 5° |
| 2026-05-04 04:21 | 20.78330 | 112.82709 | 35066 ft | 486 kts | 5° |
| 2026-05-04 04:21 | 20.85001 | 112.83938 | 35067 ft | 486 kts | 5° |
| 2026-05-04 04:22 | 20.91666 | 112.85179 | 35076 ft | 486 kts | 4° |
| 2026-05-04 04:22 | 20.98324 | 112.86420 | 35073 ft | 486 kts | 4° |
| 2026-05-04 04:23 | 21.04987 | 112.87656 | 35072 ft | 486 kts | 4° |
| 2026-05-04 04:23 | 21.11645 | 112.88892 | 35073 ft | 486 kts | 4° |
| 2026-05-04 04:24 | 21.18302 | 112.90130 | 35081 ft | 485 kts | 4° |
| 2026-05-04 04:24 | 21.24877 | 112.91639 | 35075 ft | 494 kts | 15° |
| 2026-05-04 04:25 | 21.28000 | 112.93249 | 35028 ft | 503 kts | 26° |
| 2026-05-04 04:25 | 21.30842 | 112.95495 | 34135 ft | 517 kts | 40° |
| 2026-05-04 04:25 | 21.33186 | 112.98444 | 33085 ft | 521 kts | 54° |
| 2026-05-04 04:25 | 21.34902 | 113.01873 | 31826 ft | 525 kts | 68° |
| 2026-05-04 04:26 | 21.36104 | 113.05565 | 30752 ft | 522 kts | 71° |
| 2026-05-04 04:26 | 21.37282 | 113.09237 | 29596 ft | 520 kts | 71° |
| 2026-05-04 04:26 | 21.38472 | 113.12880 | 28563 ft | 513 kts | 70° |
| 2026-05-04 04:26 | 21.39657 | 113.16466 | 27589 ft | 506 kts | 70° |
| 2026-05-04 04:27 | 21.40834 | 113.20030 | 26533 ft | 508 kts | 70° |
| 2026-05-04 04:27 | 21.42024 | 113.23638 | 25367 ft | 516 kts | 70° |
| 2026-05-04 04:27 | 21.43219 | 113.27280 | 24344 ft | 519 kts | 71° |
| 2026-05-04 04:27 | 21.44415 | 113.30949 | 23313 ft | 521 kts | 71° |
| 2026-05-04 04:28 | 21.45606 | 113.34609 | 22464 ft | 516 kts | 71° |
| 2026-05-04 04:28 | 21.46781 | 113.38231 | 21635 ft | 511 kts | 71° |
| 2026-05-04 04:28 | 21.47943 | 113.41821 | 20819 ft | 506 kts | 71° |
| 2026-05-04 04:28 | 21.49095 | 113.45376 | 19985 ft | 502 kts | 71° |
| 2026-05-04 04:29 | 21.50237 | 113.48904 | 19183 ft | 498 kts | 71° |
| 2026-05-04 04:29 | 21.51369 | 113.52403 | 18377 ft | 494 kts | 72° |
| 2026-05-04 04:29 | 21.52653 | 113.55801 | 17499 ft | 489 kts | 63° |
| 2026-05-04 04:29 | 21.54395 | 113.58901 | 16722 ft | 481 kts | 53° |
| 2026-05-04 04:30 | 21.56542 | 113.61593 | 16306 ft | 464 kts | 43° |
| 2026-05-04 04:30 | 21.58794 | 113.63953 | 16178 ft | 443 kts | 43° |
| 2026-05-04 04:30 | 21.60940 | 113.66236 | 16058 ft | 425 kts | 43° |
| 2026-05-04 04:30 | 21.62964 | 113.68406 | 15936 ft | 408 kts | 43° |
| 2026-05-04 04:31 | 21.64937 | 113.70527 | 15640 ft | 397 kts | 43° |
| 2026-05-04 04:31 | 21.66925 | 113.72601 | 15286 ft | 392 kts | 41° |
| 2026-05-04 04:31 | 21.68892 | 113.74557 | 14791 ft | 388 kts | 40° |
| 2026-05-04 04:31 | 21.70895 | 113.76491 | 14291 ft | 385 kts | 40° |
| 2026-05-04 04:32 | 21.72891 | 113.78398 | 13793 ft | 382 kts | 40° |
| 2026-05-04 04:32 | 21.74869 | 113.80292 | 13300 ft | 378 kts | 40° |
| 2026-05-04 04:32 | 21.76819 | 113.82173 | 12700 ft | 376 kts | 40° |
| 2026-05-04 04:32 | 21.78749 | 113.84046 | 12203 ft | 368 kts | 40° |
| 2026-05-04 04:33 | 21.80636 | 113.85885 | 11484 ft | 364 kts | 40° |
| 2026-05-04 04:33 | 21.82576 | 113.87588 | 10820 ft | 355 kts | 27° |
| 2026-05-04 04:33 | 21.84766 | 113.88545 | 10629 ft | 327 kts | 9° |
| 2026-05-04 04:33 | 21.86949 | 113.88784 | 10300 ft | 306 kts | 352° |
| 2026-05-04 04:34 | 21.88967 | 113.88358 | 9913 ft | 287 kts | 335° |
| 2026-05-04 04:34 | 21.90789 | 113.87473 | 9686 ft | 289 kts | 330° |
| 2026-05-04 04:34 | 21.92611 | 113.86558 | 9253 ft | 289 kts | 330° |
| 2026-05-04 04:34 | 21.94436 | 113.85653 | 8875 ft | 286 kts | 330° |
| 2026-05-04 04:35 | 21.96252 | 113.84756 | 8453 ft | 286 kts | 331° |
| 2026-05-04 04:35 | 21.98061 | 113.83863 | 8004 ft | 286 kts | 331° |
| 2026-05-04 04:35 | 21.99854 | 113.82976 | 7623 ft | 281 kts | 332° |
| 2026-05-04 04:35 | 22.01629 | 113.82097 | 7079 ft | 280 kts | 332° |
| 2026-05-04 04:36 | 22.03398 | 113.81218 | 6539 ft | 280 kts | 332° |
| 2026-05-04 04:36 | 22.05153 | 113.80344 | 6045 ft | 276 kts | 333° |
| 2026-05-04 04:36 | 22.06885 | 113.79481 | 5597 ft | 273 kts | 333° |
| 2026-05-04 04:36 | 22.08600 | 113.78626 | 5169 ft | 271 kts | 333° |
| 2026-05-04 04:37 | 22.13716 | 113.76072 | 4230 ft | 259 kts | 334° |
| 2026-05-04 04:37 | 22.15316 | 113.75277 | 4142 ft | 247 kts | 334° |
| 2026-05-04 04:38 | 22.16835 | 113.74521 | 4042 ft | 234 kts | 334° |
| 2026-05-04 04:38 | 22.18268 | 113.73807 | 3940 ft | 220 kts | 335° |
| 2026-05-04 04:38 | 22.19613 | 113.73136 | 3848 ft | 206 kts | 335° |
| 2026-05-04 04:38 | 22.20934 | 113.72704 | 3769 ft | 195 kts | 356° |
| 2026-05-04 04:39 | 22.22251 | 113.72948 | 3597 ft | 193 kts | 24° |
| 2026-05-04 04:39 | 22.23367 | 113.73689 | 3346 ft | 188 kts | 34° |
| 2026-05-04 04:39 | 22.24451 | 113.74453 | 3070 ft | 184 kts | 35° |
| 2026-05-04 04:39 | 22.25516 | 113.75200 | 2822 ft | 183 kts | 35° |
| 2026-05-04 04:40 | 22.26484 | 113.76078 | 2606 ft | 180 kts | 53° |
| 2026-05-04 04:40 | 22.27038 | 113.77249 | 2398 ft | 172 kts | 71° |
| 2026-05-04 04:40 | 22.27425 | 113.78448 | 2182 ft | 166 kts | 70° |
| 2026-05-04 04:40 | 22.27794 | 113.79589 | 1995 ft | 155 kts | 70° |
| 2026-05-04 04:41 | 22.28143 | 113.80668 | 1779 ft | 149 kts | 69° |
| 2026-05-04 04:41 | 22.28474 | 113.81691 | 1584 ft | 142 kts | 69° |
| 2026-05-04 04:41 | 22.28798 | 113.82694 | 1398 ft | 140 kts | 71° |
| 2026-05-04 04:41 | 22.29118 | 113.83682 | 1220 ft | 139 kts | 69° |
| 2026-05-04 04:42 | 22.29439 | 113.84676 | 1038 ft | 140 kts | 69° |
| 2026-05-04 04:42 | 22.29761 | 113.85673 | 851 ft | 142 kts | 70° |
| 2026-05-04 04:42 | 22.30087 | 113.86681 | 673 ft | 142 kts | 68° |
| 2026-05-04 04:42 | 22.30415 | 113.87690 | 497 ft | 145 kts | 69° |
| 2026-05-04 04:43 | 22.30743 | 113.88730 | 308 ft | 146 kts | 70° |
| 2026-05-04 04:43 | 22.31077 | 113.89770 | 105 ft | 146 kts | 68° |
| 2026-05-04 04:43 | 22.31405 | 113.90776 | 34 ft | 131 kts | 70° |
| 2026-05-04 04:43 | 22.31658 | 113.91555 | 33 ft | 86 kts | 71° |
| 2026-05-04 04:44 | 22.31788 | 113.91976 | 33 ft | 39 kts | 77° |
| 2026-05-04 04:44 | 22.31774 | 113.92217 | 33 ft | 28 kts | 102° |
| 2026-05-04 04:44 | 22.31748 | 113.92381 | 32 ft | 16 kts | 91° |
| 2026-05-04 04:44 | 22.31776 | 113.92496 | 30 ft | 16 kts | 69° |
| 2026-05-04 04:45 | 22.31815 | 113.92615 | 32 ft | 17 kts | 71° |
| 2026-05-04 04:45 | 22.31856 | 113.92740 | 32 ft | 16 kts | 71° |
| 2026-05-04 04:45 | 22.31830 | 113.92827 | 32 ft | 13 kts | 143° |
| 2026-05-04 04:47 | 22.31745 | 113.93099 | 32 ft | 2 kts | 259° |
| 2026-05-04 04:47 | 22.31744 | 113.93091 | 32 ft | 1 kts | 260° |
| 2026-05-04 04:47 | 22.31744 | 113.93089 | 32 ft | 0 kts | 260° |